createdAt,value
2022-12-31T00:01:24.852Z,99848.75
2022-12-31T00:03:53.260Z,99860.03
2022-12-31T00:06:33.440Z,99851.63
2022-12-31T00:09:05.131Z,99867.69
2022-12-31T00:11:35.320Z,99861.97
2022-12-31T00:14:03.953Z,99864.50
2022-12-31T00:16:39.498Z,99873.78
2022-12-31T00:19:11.156Z,99864.63
2022-12-31T00:21:39.496Z,99877.78
2022-12-31T00:24:08.417Z,99873.00
2022-12-31T00:26:36.411Z,99881.03
2022-12-31T00:29:05.886Z,99886.47
2022-12-31T00:31:37.107Z,99886.59
2022-12-31T00:34:06.211Z,99890.06
2022-12-31T00:36:39.704Z,99905.41
2022-12-31T00:39:08.849Z,99903.00
2022-12-31T00:41:36.907Z,99903.00
2022-12-31T00:44:05.447Z,99907.25
2022-12-31T00:46:33.420Z,99910.03
2022-12-31T00:49:01.310Z,99920.34
2022-12-31T00:51:30.173Z,99913.81
2022-12-31T00:53:59.051Z,99924.97
2022-12-31T00:56:30.489Z,99923.72
2022-12-31T00:59:00.386Z,99930.97
2022-12-31T01:01:35.164Z,99930.28
2022-12-31T01:04:13.055Z,99931.44
2022-12-31T01:06:42.422Z,99930.78
2022-12-31T01:09:13.794Z,99934.09
2022-12-31T01:11:42.302Z,99935.13
2022-12-31T01:14:20.476Z,99934.56
2022-12-31T01:16:54.064Z,99935.75
2022-12-31T01:19:28.107Z,99932.31
2022-12-31T01:21:57.215Z,99937.22
2022-12-31T01:24:25.199Z,99925.53
2022-12-31T01:26:53.102Z,99933.44
2022-12-31T01:29:20.867Z,99927.47
2022-12-31T01:31:48.606Z,99931.06
2022-12-31T01:34:16.504Z,99934.25
2022-12-31T01:36:45.174Z,99932.91
2022-12-31T01:39:13.903Z,99933.81
2022-12-31T01:41:45.828Z,99932.09
2022-12-31T01:44:13.569Z,99928.66
2022-12-31T01:46:51.984Z,99924.41
2022-12-31T01:49:40.907Z,99926.00
2022-12-31T01:52:36.969Z,99927.59
2022-12-31T01:55:20.300Z,99928.53
2022-12-31T01:57:54.243Z,99925.47
2022-12-31T02:00:22.351Z,99921.44
2022-12-31T02:02:50.948Z,99928.78
2022-12-31T02:05:24.692Z,99928.91
2022-12-31T02:07:54.987Z,99933.38
2022-12-31T02:13:28.184Z,99935.75
2022-12-31T02:16:12.741Z,99935.22
2022-12-31T02:19:08.395Z,99931.78
2022-12-31T02:22:18.156Z,99936.81
2022-12-31T02:25:23.429Z,99937.84
2022-12-31T02:28:47.404Z,99945.06
2022-12-31T02:31:31.992Z,99946.25
2022-12-31T02:34:21.256Z,99939.34
2022-12-31T02:36:52.863Z,99937.19
2022-12-31T02:39:21.478Z,99935.38
2022-12-31T02:41:50.782Z,99933.78
2022-12-31T02:44:32.067Z,99947.25
2022-12-31T02:47:08.598Z,99946.69
2022-12-31T02:49:39.250Z,99949.22
2022-12-31T02:52:32.741Z,99943.50
2022-12-31T02:55:30.709Z,99946.38
2022-12-31T02:58:56.080Z,99945.69
2022-12-31T03:01:51.575Z,99950.84
2022-12-31T03:04:36.332Z,99955.63
2022-12-31T03:07:12.673Z,99946.38
2022-12-31T03:09:41.069Z,99944.66
2022-12-31T03:12:30.440Z,99947.88
2022-12-31T03:14:59.128Z,99950.38
2022-12-31T03:17:27.304Z,99957.81
2022-12-31T03:20:13.699Z,99967.75
2022-12-31T03:22:44.037Z,99960.09
2022-12-31T03:25:36.259Z,99961.81
2022-12-31T03:28:17.462Z,99974.53
2022-12-31T03:30:50.133Z,99968.00
2022-12-31T03:33:19.231Z,99964.09
2022-12-31T03:35:48.920Z,99966.75
2022-12-31T03:38:18.253Z,99967.78
2022-12-31T03:40:51.150Z,99968.91
2022-12-31T03:43:20.422Z,99968.47
2022-12-31T03:45:51.869Z,99968.59
2022-12-31T03:48:22.458Z,99981.19
2022-12-31T03:50:51.291Z,99980.47
2022-12-31T03:53:19.574Z,99980.59
2022-12-31T03:55:55.170Z,99982.56
2022-12-31T03:58:23.425Z,99982.88
2022-12-31T04:00:51.387Z,99985.19
2022-12-31T04:03:19.316Z,99982.69
2022-12-31T04:05:55.340Z,99985.63
2022-12-31T04:08:23.841Z,99981.53
2022-12-31T04:10:51.639Z,99979.00
2022-12-31T04:13:19.491Z,99990.00
2022-12-31T04:15:51.392Z,99980.84
2022-12-31T04:18:19.260Z,99985.19
2022-12-31T04:20:47.081Z,99991.16
2022-12-31T04:23:14.854Z,99986.13
2022-12-31T04:25:42.826Z,99982.22
2022-12-31T04:28:12.197Z,99980.84
2022-12-31T04:30:40.642Z,99989.19
2022-12-31T04:33:08.585Z,99983.38
2022-12-31T04:35:36.432Z,99994.00
2022-12-31T04:38:04.748Z,99993.19
2022-12-31T04:40:32.733Z,99990.56
2022-12-31T04:43:00.475Z,99987.94
2022-12-31T04:45:28.212Z,99992.75
2022-12-31T04:47:56.017Z,99995.72
2022-12-31T04:50:23.752Z,99994.00
2022-12-31T04:52:51.517Z,99997.31
2022-12-31T04:55:20.042Z,100001.88
2022-12-31T04:57:48.148Z,100002.69
2022-12-31T05:00:16.245Z,100002.81
2022-12-31T05:02:44.192Z,100004.53
2022-12-31T05:05:12.069Z,100008.50
2022-12-31T05:07:39.938Z,100017.00
2022-12-31T05:10:08.275Z,100012.19
2022-12-31T05:12:36.113Z,100010.69
2022-12-31T05:15:04.246Z,100007.84
2022-12-31T05:17:32.235Z,100007.84
2022-12-31T05:20:00.282Z,100019.72
2022-12-31T05:22:31.615Z,100013.09
2022-12-31T05:25:01.010Z,100027.38
2022-12-31T05:27:31.429Z,100025.78
2022-12-31T05:30:00.168Z,100031.88
2022-12-31T05:32:28.103Z,100041.81
2022-12-31T05:34:56.957Z,100048.31
2022-12-31T05:37:24.812Z,100036.66
2022-12-31T05:39:52.708Z,100040.31
2022-12-31T05:42:21.173Z,100043.75
2022-12-31T05:44:48.969Z,100041.44
2022-12-31T05:47:17.273Z,100045.56
2022-12-31T05:49:45.209Z,100050.59
2022-12-31T05:52:13.139Z,100053.22
2022-12-31T05:54:40.989Z,100046.59
2022-12-31T05:57:09.384Z,100050.84
2022-12-31T05:59:38.488Z,100045.81
2022-12-31T06:02:06.223Z,100050.94
2022-12-31T06:04:34.819Z,100048.66
2022-12-31T06:07:02.638Z,100047.16
2022-12-31T06:09:30.422Z,100048.06
2022-12-31T06:11:58.206Z,100056.53
2022-12-31T06:14:26.065Z,100059.75
2022-12-31T06:16:54.048Z,100069.59
2022-12-31T06:19:21.901Z,100063.19
2022-12-31T06:21:49.955Z,100063.41
2022-12-31T06:24:17.832Z,100066.41
2022-12-31T06:26:45.671Z,100070.16
2022-12-31T06:29:13.484Z,100052.78
2022-12-31T06:31:41.297Z,100057.50
2022-12-31T06:34:09.023Z,100053.94
2022-12-31T06:36:36.881Z,100048.78
2022-12-31T06:39:04.731Z,100047.44
2022-12-31T06:41:32.714Z,100064.47
2022-12-31T06:44:00.630Z,100066.97
2022-12-31T06:46:29.168Z,100073.72
2022-12-31T06:48:56.957Z,100076.28
2022-12-31T06:51:25.273Z,100087.47
2022-12-31T06:53:53.260Z,100095.50
2022-12-31T06:56:34.015Z,100104.88
2022-12-31T06:59:05.148Z,100107.63
2022-12-31T07:01:41.860Z,100108.53
2022-12-31T07:04:57.714Z,100112.06
2022-12-31T07:07:46.277Z,100114.22
2022-12-31T07:10:32.319Z,100102.75
2022-12-31T07:13:30.832Z,100106.09
2022-12-31T07:16:22.291Z,100110.06
2022-12-31T07:19:34.130Z,100119.81
2022-12-31T07:22:03.687Z,100116.94
2022-12-31T07:24:31.784Z,100121.38
2022-12-31T07:27:48.159Z,100118.16
2022-12-31T07:30:58.098Z,100122.63
2022-12-31T07:34:00.257Z,100120.53
2022-12-31T07:36:53.326Z,100129.91
2022-12-31T07:39:48.559Z,100134.72
2022-12-31T07:42:44.771Z,100136.56
2022-12-31T07:45:30.097Z,100135.38
2022-12-31T07:48:02.414Z,100148.56
2022-12-31T07:50:31.192Z,100156.69
2022-12-31T07:52:59.571Z,100161.94
2022-12-31T07:55:27.495Z,100165.09
2022-12-31T07:58:18.703Z,100171.66
2022-12-31T08:00:47.274Z,100166.22
2022-12-31T08:03:36.928Z,100166.66
2022-12-31T08:06:32.402Z,100156.16
2022-12-31T08:09:50.437Z,100169.91
2022-12-31T08:12:21.170Z,100168.50
2022-12-31T08:14:49.443Z,100172.09
2022-12-31T08:17:19.897Z,100180.91
2022-12-31T08:19:48.181Z,100173.16
2022-12-31T08:23:12.283Z,100174.50
2022-12-31T08:25:54.851Z,100171.72
2022-12-31T08:28:34.344Z,100180.66
2022-12-31T08:31:21.633Z,100182.25
2022-12-31T08:34:12.421Z,100189.19
2022-12-31T08:37:15.036Z,100193.88
2022-12-31T08:40:24.014Z,100206.78
2022-12-31T09:32:33.009Z,100215.91
2022-12-31T09:35:08.003Z,100204.59
2022-12-31T09:37:47.731Z,100213.41
2022-12-31T09:40:40.540Z,100203.41
2022-12-31T09:43:54.575Z,100209.56
2022-12-31T09:46:51.980Z,100200.22
2022-12-31T10:50:12.194Z,100162.38
2022-12-31T13:03:23.715Z,100096.28
2022-12-31T14:03:01.895Z,100098.13
2022-12-31T14:05:41.970Z,100110.81
2022-12-31T14:08:10.085Z,100107.44
2022-12-31T14:10:50.238Z,100109.91
2022-12-31T14:13:52.074Z,100107.75
2022-12-31T14:17:19.608Z,100111.47
2022-12-31T14:20:21.240Z,100113.44
2022-12-31T14:23:37.642Z,100114.16
2022-12-31T14:26:33.600Z,100106.19
2022-12-31T14:29:23.545Z,100100.25
2022-12-31T14:32:00.304Z,100099.38
2022-12-31T14:34:49.888Z,100099.09
2022-12-31T14:37:46.807Z,100108.63
2022-12-31T14:40:49.181Z,100106.03
2022-12-31T14:43:28.607Z,100110.88
2022-12-31T14:46:20.456Z,100115.28
2022-12-31T14:49:44.562Z,100112.84
2022-12-31T14:53:06.395Z,100123.03
2022-12-31T14:55:38.113Z,100133.94
2022-12-31T14:58:29.674Z,100148.38
2022-12-31T15:01:22.587Z,100154.91
2022-12-31T15:03:50.770Z,100156.63
2022-12-31T15:06:24.442Z,100161.53
2022-12-31T15:09:39.663Z,100170.56
2022-12-31T15:12:25.880Z,100181.16
2022-12-31T15:15:26.333Z,100186.41
2022-12-31T15:18:31.547Z,100186.44
2022-12-31T15:21:35.866Z,100175.34
2022-12-31T15:24:28.148Z,100178.56
2022-12-31T15:27:01.553Z,100193.94
2022-12-31T15:29:43.668Z,100204.78
2022-12-31T15:32:40.805Z,100200.50
2022-12-31T15:35:20.678Z,100196.38
2022-12-31T15:38:16.948Z,100199.91
2022-12-31T15:40:52.628Z,100203.78
2022-12-31T15:43:45.449Z,100206.84
2022-12-31T15:46:37.140Z,100204.94
2022-12-31T15:49:23.174Z,100210.66
2022-12-31T15:52:04.413Z,100222.78
2022-12-31T15:54:38.349Z,100210.03
2022-12-31T15:57:16.279Z,100202.41
2022-12-31T15:59:45.583Z,100206.00
2022-12-31T16:02:25.050Z,100210.00
2022-12-31T16:04:57.286Z,100206.50
2022-12-31T16:07:28.520Z,100212.06
2022-12-31T16:10:02.164Z,100209.66
2022-12-31T16:12:44.413Z,100214.28
2022-12-31T16:15:34.454Z,100216.03
2022-12-31T16:18:11.240Z,100217.16
2022-12-31T16:20:45.813Z,100215.06
2022-12-31T16:23:25.024Z,100221.25
2022-12-31T16:25:58.603Z,100221.09
2022-12-31T16:28:33.532Z,100216.00
2022-12-31T16:31:07.027Z,100231.75
2022-12-31T16:33:35.283Z,100221.22
2022-12-31T16:36:03.147Z,100229.34
2022-12-31T16:38:37.982Z,100235.84
2022-12-31T16:41:20.520Z,100233.56
2022-12-31T16:43:50.401Z,100241.16
2022-12-31T16:46:27.156Z,100249.88
2022-12-31T16:49:21.842Z,100246.94
2022-12-31T16:51:50.047Z,100246.56
2022-12-31T16:54:30.299Z,100248.41
2022-12-31T16:57:00.523Z,100242.03
2022-12-31T16:59:44.006Z,100253.44
2022-12-31T17:02:27.332Z,100249.72
2022-12-31T17:04:56.637Z,100241.63
2022-12-31T17:07:40.850Z,100240.34
2022-12-31T17:10:08.559Z,100240.72
2022-12-31T17:13:25.498Z,100238.44
2022-12-31T17:15:43.801Z,100238.69
2022-12-31T17:18:37.180Z,100238.91
2022-12-31T17:21:10.336Z,100239.34
2022-12-31T17:23:40.140Z,100237.25
2022-12-31T17:26:22.200Z,100237.38
2022-12-31T17:28:53.571Z,100237.38
2022-12-31T17:31:33.333Z,100229.41
2022-12-31T17:34:13.076Z,100232.34
2022-12-31T17:37:02.434Z,100232.97
2022-12-31T17:39:52.714Z,100228.59
2022-12-31T17:42:32.346Z,100225.41
2022-12-31T17:45:06.715Z,100234.25
2022-12-31T17:47:44.745Z,100230.69
2022-12-31T17:50:20.398Z,100232.88
2022-12-31T17:52:48.933Z,100233.16
2022-12-31T17:55:16.968Z,100232.47
2022-12-31T17:57:58.421Z,100235.97
2022-12-31T18:00:27.948Z,100238.16
2022-12-31T18:02:55.902Z,100232.19
2022-12-31T18:05:25.705Z,100228.19
2022-12-31T18:07:54.330Z,100248.91
2022-12-31T18:10:24.664Z,100248.69
2022-12-31T18:12:52.797Z,100246.84
2022-12-31T18:15:23.763Z,100251.69
2022-12-31T18:17:51.705Z,100251.75
2022-12-31T18:20:19.609Z,100253.75
2022-12-31T18:22:47.764Z,100248.56
2022-12-31T18:25:23.030Z,100248.84
2022-12-31T18:27:52.602Z,100249.13
2022-12-31T18:30:20.408Z,100258.50
2022-12-31T18:32:48.741Z,100250.25
2022-12-31T18:35:58.119Z,100262.13
2022-12-31T18:38:14.483Z,100269.59
2022-12-31T18:40:46.833Z,100274.28
2022-12-31T18:43:19.843Z,100254.81
2022-12-31T18:45:49.061Z,100263.88
2022-12-31T18:48:17.971Z,100268.28
2022-12-31T18:50:46.929Z,100281.50
2022-12-31T18:53:25.434Z,100282.03
2022-12-31T18:55:57.847Z,100283.22
2022-12-31T18:58:25.721Z,100287.63
2022-12-31T19:00:53.631Z,100280.19
2022-12-31T19:03:28.201Z,100272.97
2022-12-31T19:05:56.339Z,100277.22
2022-12-31T19:08:24.696Z,100283.09
2022-12-31T19:10:53.855Z,100287.50
2022-12-31T19:13:23.029Z,100293.22
2022-12-31T19:15:53.591Z,100299.22
2022-12-31T19:18:21.770Z,100295.38
2022-12-31T19:20:51.191Z,100297.34
2022-12-31T19:23:22.470Z,100296.28
2022-12-31T19:25:50.782Z,100289.88
2022-12-31T19:28:25.216Z,100294.28
2022-12-31T19:30:53.578Z,100299.47
2022-12-31T19:33:21.602Z,100308.94
2022-12-31T19:35:50.071Z,100310.25
2022-12-31T19:38:21.803Z,100312.91
2022-12-31T19:40:51.691Z,100309.81
2022-12-31T19:43:22.386Z,100307.69
2022-12-31T19:45:51.746Z,100294.88
2022-12-31T19:48:28.765Z,100296.63
2022-12-31T19:51:00.378Z,100295.03
2022-12-31T19:53:28.729Z,100290.91
2022-12-31T19:55:56.541Z,100304.63
2022-12-31T19:58:26.742Z,100304.84
2022-12-31T20:01:02.455Z,100300.69
2022-12-31T20:03:33.386Z,100294.03
2022-12-31T20:06:10.411Z,100306.69
2022-12-31T20:08:39.553Z,100301.75
2022-12-31T20:11:19.944Z,100295.25
2022-12-31T20:13:49.743Z,100308.78
2022-12-31T20:16:21.235Z,100300.53
2022-12-31T20:18:50.810Z,100298.13
2022-12-31T20:21:25.987Z,100304.25
2022-12-31T20:23:55.571Z,100300.22
2022-12-31T20:26:25.422Z,100310.34
2022-12-31T20:28:53.855Z,100303.03
2022-12-31T20:31:26.576Z,100302.22
2022-12-31T20:33:55.248Z,100291.72
2022-12-31T20:36:23.940Z,100296.19
2022-12-31T20:38:51.959Z,100296.47
2022-12-31T20:41:22.805Z,100297.88
2022-12-31T20:43:51.789Z,100292.16
2022-12-31T20:46:25.874Z,100288.16
2022-12-31T20:48:57.997Z,100273.75
2022-12-31T20:51:28.166Z,100291.06
